TAF Austria - 19 Feb 2018 - 0157 UTC - RocketRoute WX - rrwx.com
LOWG 182315Z 1900/1924 VRB02KT 9999 BKN040 TX03/1914Z TNM03/1907Z PROB30 TEMPO 1903/1910 2000 BR BKN004 TEMPO 1917/1924 15006KT 6000 -SN SCT012 BKN030 LOWI 182315Z 1900/1924 09005KT 9999 SCT015 SCT040 BKN060 TX05/1914Z TNM03/1906Z TEMPO 1900/1908 BKN013 BECMG 1908/1910 CAVOK LOWK 182315Z 1900/1924 07005KT 9999 SCT040 BKN100 TX01/1913Z TNM04/1908Z PROB30 TEMPO 1900/1906 2000 FZBCFG BKN007 TEMPO 1914/1924 16008KT 6000 -SHSN SCT020 BKN040 LOWL 182315Z 1900/1924 09007KT 9999 SCT040 TX04/1914Z TNM04/2000Z PROB30 TEMPO 1902/1908 09005KT 6000 SCT005 BKN008 BECMG 1908/1910 CAVOK BECMG 1917/1919 VRB02KT LOWS 182315Z 1900/1924 VRB02KT 8000 FEW020 TX04/1914Z TNM07/1906Z TEMPO 1900/1907 3500 BR SCT003 PROB30 TEMPO 1902/1907 0800 FZBCFG BKN007 BECMG 1908/1910 34006KT CAVOK BECMG 1918/1920 VRB02KT 6000 NSC TEMPO 1920/1924 4000 BR LOWW 182315Z 1900/2006 35004KT CAVOK TX03/1914Z TNM05/1906Z PROB40 1905/1908 VRB02KT 4000 BR FEW001 BECMG 1908/1910 15010KT BECMG 1916/1919 14003KT BECMG 2000/2002 06005KT 8000 -SN FEW020 BKN030 PROB30 TEMPO 2003/2006 2500 SN BKN010 LOAN   LOXZ  

RocketRoute WX - rrwx.com weather for pilots